createdAt,value
2023-03-11T00:00:25.554Z,20.70
2023-03-11T00:05:35.230Z,19.90
2023-03-11T00:10:44.731Z,21.80
2023-03-11T00:15:58.024Z,20.20
2023-03-11T00:21:05.548Z,19.50
2023-03-11T00:26:12.698Z,21.80
2023-03-11T00:31:20.188Z,18.30
2023-03-11T00:36:31.722Z,18.40
2023-03-11T00:41:39.093Z,17.30
2023-03-11T00:46:46.388Z,18.60
2023-03-11T00:51:53.579Z,18.90
2023-03-11T00:57:00.713Z,17.50
2023-03-11T01:02:08.315Z,17.10
2023-03-11T01:07:15.798Z,15.60
2023-03-11T01:12:22.955Z,16.10
2023-03-11T01:17:30.344Z,17.30
2023-03-11T01:22:37.643Z,17.20
2023-03-11T01:27:44.826Z,18.70
2023-03-11T01:32:52.750Z,16.70
2023-03-11T01:43:08.273Z,14.60
2023-03-11T01:48:16.153Z,14.50
2023-03-11T01:53:25.773Z,15.10
2023-03-11T01:58:37.162Z,13.30
2023-03-11T02:03:44.788Z,13.30
2023-03-11T02:08:52.686Z,15.10
2023-03-11T02:14:05.042Z,13.00
2023-03-11T02:19:20.726Z,12.60
2023-03-11T02:24:37.067Z,10.40
2023-03-11T02:29:47.098Z,8.30
2023-03-11T02:34:54.334Z,9.10
2023-03-11T02:40:42.679Z,8.50
2023-03-11T02:45:51.735Z,11.20
2023-03-11T02:51:00.880Z,10.40
2023-03-11T02:56:08.860Z,8.20
2023-03-11T03:01:16.428Z,7.00
2023-03-11T03:06:25.244Z,7.60
2023-03-11T03:11:33.064Z,7.60
2023-03-11T03:16:40.281Z,8.00
2023-03-11T03:21:47.442Z,7.10
2023-03-11T03:26:54.992Z,7.60
2023-03-11T03:32:02.237Z,6.70
2023-03-11T03:37:09.702Z,6.00
2023-03-11T03:42:17.131Z,6.00
2023-03-11T03:47:25.360Z,5.10
2023-03-11T03:52:32.891Z,5.50
2023-03-11T03:57:40.536Z,5.60
2023-03-11T04:02:49.156Z,5.90
2023-03-11T04:08:04.146Z,5.00
2023-03-11T04:13:11.867Z,4.70
2023-03-11T04:18:22.962Z,5.10
2023-03-11T04:23:30.308Z,4.90
2023-03-11T04:28:38.698Z,5.00
2023-03-11T04:33:46.159Z,4.80
2023-03-11T04:38:53.666Z,4.00
2023-03-11T04:49:09.101Z,3.70
2023-03-11T04:59:22.455Z,4.20
2023-03-11T05:04:31.759Z,4.00
2023-03-11T05:09:39.607Z,5.40
2023-03-11T05:14:47.007Z,5.00
2023-03-11T05:19:54.824Z,4.80
2023-03-11T05:25:05.396Z,4.70
2023-03-11T05:30:15.484Z,8.30
2023-03-11T05:35:23.272Z,6.10
2023-03-11T05:40:30.574Z,7.40
2023-03-11T05:45:37.816Z,9.20
2023-03-11T05:50:46.059Z,7.30
2023-03-11T05:56:00.144Z,7.20
2023-03-11T06:01:12.983Z,6.70
2023-03-11T06:06:20.595Z,6.70
2023-03-11T06:11:28.142Z,7.90
2023-03-11T06:16:35.892Z,8.30
2023-03-11T06:21:43.905Z,8.40
2023-03-11T06:26:54.120Z,8.80
2023-03-11T06:32:03.110Z,6.40
2023-03-11T06:37:10.530Z,7.10
2023-03-11T06:42:20.373Z,7.00
2023-03-11T06:47:28.177Z,6.70
2023-03-11T06:52:35.888Z,6.00
2023-03-11T06:57:44.884Z,6.50
2023-03-11T07:02:52.890Z,5.30
2023-03-11T07:13:08.079Z,6.20
2023-03-11T07:18:15.328Z,5.80
2023-03-11T07:23:22.935Z,6.00
2023-03-11T07:28:31.109Z,5.90
2023-03-11T07:33:40.803Z,5.70
2023-03-11T07:38:48.860Z,5.50
2023-03-11T07:43:59.343Z,5.00
2023-03-11T07:49:08.980Z,5.30
2023-03-11T07:54:16.544Z,6.30
2023-03-11T07:59:23.702Z,5.90
2023-03-11T08:04:33.286Z,5.30
2023-03-11T08:09:40.687Z,4.80
2023-03-11T08:14:48.024Z,5.80
2023-03-11T08:19:55.698Z,7.20
2023-03-11T08:25:02.994Z,5.30
2023-03-11T08:30:12.520Z,6.60
2023-03-11T08:35:19.982Z,7.10
2023-03-11T08:40:27.597Z,5.70
2023-03-11T08:45:34.964Z,5.10
2023-03-11T08:50:53.517Z,6.00
2023-03-11T08:56:01.475Z,5.30
2023-03-11T09:01:10.408Z,7.20
2023-03-11T09:06:18.714Z,6.70
2023-03-11T09:11:25.925Z,6.30
2023-03-11T09:16:33.615Z,5.80
2023-03-11T09:26:46.906Z,5.60
2023-03-11T09:31:54.196Z,9.10
2023-03-11T09:37:02.389Z,6.00
2023-03-11T09:42:21.063Z,5.10
2023-03-11T09:47:46.588Z,5.10
2023-03-11T09:53:04.563Z,5.50
2023-03-11T09:58:18.044Z,5.60
2023-03-11T10:03:36.390Z,4.20
2023-03-11T10:08:53.561Z,4.80
2023-03-11T10:14:14.224Z,5.20
2023-03-11T10:19:34.907Z,5.80
2023-03-11T10:24:58.400Z,6.30
2023-03-11T10:30:11.458Z,6.20
2023-03-11T10:35:23.833Z,6.60
2023-03-11T10:40:33.842Z,5.70
2023-03-11T10:45:45.061Z,5.70
2023-03-11T10:50:59.938Z,5.10
2023-03-11T10:56:08.130Z,4.90
2023-03-11T11:06:29.012Z,4.40
2023-03-11T11:11:36.697Z,5.10
2023-03-11T11:16:44.369Z,5.60
2023-03-11T11:21:53.827Z,4.70
2023-03-11T11:27:16.442Z,4.40
2023-03-11T11:32:28.155Z,4.50
2023-03-11T11:37:38.948Z,3.80
2023-03-11T11:42:51.879Z,4.80
2023-03-11T11:48:04.081Z,4.10
2023-03-11T11:53:22.891Z,3.90
2023-03-11T11:58:31.953Z,4.80
2023-03-11T12:04:26.977Z,4.10
2023-03-11T12:09:44.047Z,3.80
2023-03-11T12:14:57.825Z,4.40
2023-03-11T12:20:11.515Z,4.00
2023-03-11T12:25:35.190Z,3.80
2023-03-11T12:30:47.628Z,4.50
2023-03-11T12:35:58.368Z,4.20
2023-03-11T12:41:10.025Z,3.50
2023-03-11T12:46:18.980Z,3.70
2023-03-11T12:51:41.199Z,3.00
2023-03-11T12:56:56.814Z,2.70
2023-03-11T13:02:24.895Z,3.10
2023-03-11T13:07:51.172Z,2.90
2023-03-11T13:12:58.569Z,3.00
2023-03-11T13:18:16.226Z,3.40
2023-03-11T13:23:30.681Z,3.80
2023-03-11T13:28:58.157Z,2.50
2023-03-11T13:34:14.719Z,3.10
2023-03-11T13:39:32.708Z,3.20
2023-03-11T13:44:42.629Z,2.50
2023-03-11T13:49:55.264Z,2.20
2023-03-11T13:55:07.668Z,2.80
2023-03-11T14:00:24.264Z,2.10
2023-03-11T14:05:34.271Z,2.70
2023-03-11T14:10:42.062Z,2.70
2023-03-11T14:15:58.533Z,3.30
2023-03-11T14:21:14.466Z,3.40
2023-03-11T14:26:24.408Z,3.00
2023-03-11T14:31:36.425Z,2.20
2023-03-11T14:36:48.654Z,2.80
2023-03-11T14:42:00.979Z,2.20
2023-03-11T14:47:14.788Z,3.50
2023-03-11T14:52:28.295Z,3.00
2023-03-11T14:57:41.548Z,3.00
2023-03-11T15:02:58.474Z,3.20
2023-03-11T15:08:08.619Z,2.40
2023-03-11T15:13:18.357Z,2.70
2023-03-11T15:18:32.234Z,2.80
2023-03-11T15:23:39.980Z,2.30
2023-03-11T15:28:47.399Z,2.50
2023-03-11T15:33:56.898Z,2.00
2023-03-11T15:39:18.761Z,2.10
2023-03-11T15:44:32.160Z,2.30
2023-03-11T15:49:39.414Z,2.10
2023-03-11T15:54:55.182Z,2.40
2023-03-11T16:00:07.851Z,2.50
2023-03-11T16:05:21.544Z,2.40
2023-03-11T16:10:29.928Z,2.70
2023-03-11T16:15:39.257Z,2.70
2023-03-11T16:20:48.809Z,3.30
2023-03-11T16:25:58.908Z,4.10
2023-03-11T16:31:10.089Z,3.40
2023-03-11T16:36:17.543Z,3.50
2023-03-11T16:41:25.150Z,3.90
2023-03-11T16:46:32.425Z,3.40
2023-03-11T16:51:39.664Z,3.50
2023-03-11T16:56:46.895Z,3.70
2023-03-11T17:01:54.447Z,5.40
2023-03-11T17:07:02.150Z,4.30
2023-03-11T17:12:13.542Z,5.00
2023-03-11T17:17:21.341Z,4.30
2023-03-11T17:22:28.529Z,4.20
2023-03-11T17:27:36.291Z,4.70
2023-03-11T17:37:50.415Z,4.00
2023-03-11T17:42:57.785Z,4.30
2023-03-11T17:48:05.269Z,4.00
2023-03-11T17:53:12.617Z,4.80
2023-03-11T17:58:20.017Z,3.60
2023-03-11T18:03:27.369Z,7.10
2023-03-11T18:08:35.760Z,4.20
2023-03-11T18:13:43.294Z,5.20
2023-03-11T18:18:53.193Z,5.00
2023-03-11T18:24:01.771Z,4.40
2023-03-11T18:29:09.062Z,15.30
2023-03-11T18:34:16.385Z,6.60
2023-03-11T18:39:23.554Z,6.10
2023-03-11T18:44:30.705Z,5.90
2023-03-11T18:49:37.945Z,5.20
2023-03-11T18:54:45.269Z,6.20
2023-03-11T18:59:54.832Z,6.50
2023-03-11T19:05:06.395Z,5.90
2023-03-11T19:10:18.101Z,5.70
2023-03-11T19:15:25.363Z,5.50
2023-03-11T19:20:36.542Z,6.60
2023-03-11T19:25:57.025Z,7.00
2023-03-11T19:31:09.907Z,6.50
2023-03-11T19:36:17.434Z,5.70
2023-03-11T19:41:24.776Z,5.30
2023-03-11T19:46:34.847Z,17.70
2023-03-11T19:51:50.236Z,6.40
2023-03-11T19:56:58.936Z,6.70
2023-03-11T20:02:07.525Z,7.20
2023-03-11T20:07:16.378Z,7.20
2023-03-11T20:12:24.390Z,6.50
2023-03-11T20:17:36.069Z,6.20
2023-03-11T20:22:51.223Z,7.30
2023-03-11T20:27:59.302Z,8.00
2023-03-11T20:33:08.107Z,10.10
2023-03-11T20:38:16.051Z,10.50
2023-03-11T20:48:30.090Z,10.40
2023-03-11T20:53:38.001Z,12.00
2023-03-11T21:03:56.406Z,11.70
2023-03-11T21:09:06.706Z,11.90
2023-03-11T21:14:18.632Z,14.30
2023-03-11T21:19:26.209Z,12.20
2023-03-11T21:24:35.086Z,12.30
2023-03-11T21:29:44.259Z,11.80
2023-03-11T21:34:55.967Z,11.70
2023-03-11T21:40:04.306Z,10.70
2023-03-11T21:45:13.958Z,11.30
2023-03-11T21:50:21.956Z,9.30
2023-03-11T22:00:35.649Z,9.00
2023-03-11T22:05:44.039Z,9.30
2023-03-11T22:10:51.586Z,10.40
2023-03-11T22:15:59.633Z,9.60
2023-03-11T22:21:10.938Z,8.90
2023-03-11T22:26:18.980Z,9.20
2023-03-11T22:31:26.667Z,8.20
2023-03-11T22:36:37.177Z,8.20
2023-03-11T22:41:44.746Z,6.50
2023-03-11T22:46:52.316Z,6.60
2023-03-11T22:51:59.841Z,7.70
2023-03-11T22:57:09.798Z,6.80
2023-03-11T23:02:18.262Z,5.80
2023-03-11T23:07:25.769Z,6.30
2023-03-11T23:17:39.648Z,5.90
2023-03-11T23:22:47.444Z,5.70
2023-03-11T23:33:03.089Z,5.50
2023-03-11T23:38:13.775Z,5.30
2023-03-11T23:43:24.629Z,6.20
2023-03-11T23:48:32.688Z,5.40
2023-03-11T23:58:49.539Z,4.80
